sensor_id;sensor_type;location;lat;lon;timestamp;pressure;altitude;pressure_sealevel;temperature
29701;BMP280;57917;51.380;-0.176;2024-01-15T00:00:39;100619.53;;;3.49
29701;BMP280;57917;51.380;-0.176;2024-01-15T00:06:31;100625.56;;;3.49
29701;BMP280;57917;51.380;-0.176;2024-01-15T00:12:31;100624.88;;;3.42
29701;BMP280;57917;51.380;-0.176;2024-01-15T00:18:20;100612.13;;;3.46
29701;BMP280;57917;51.380;-0.176;2024-01-15T00:24:07;100606.50;;;3.61
29701;BMP280;57917;51.380;-0.176;2024-01-15T00:29:54;100602.97;;;3.25
29701;BMP280;57917;51.380;-0.176;2024-01-15T00:35:41;100602.41;;;2.94
29701;BMP280;57917;51.380;-0.176;2024-01-15T00:41:28;100598.81;;;2.77
29701;BMP280;57917;51.380;-0.176;2024-01-15T00:47:15;100604.16;;;3.00
29701;BMP280;57917;51.380;-0.176;2024-01-15T00:53:04;100593.03;;;3.04
29701;BMP280;57917;51.380;-0.176;2024-01-15T00:58:54;100600.88;;;3.04
29701;BMP280;57917;51.380;-0.176;2024-01-15T01:04:41;100593.75;;;2.93
29701;BMP280;57917;51.380;-0.176;2024-01-15T01:10:33;100590.03;;;2.89
29701;BMP280;57917;51.380;-0.176;2024-01-15T01:16:20;100573.47;;;2.77
29701;BMP280;57917;51.380;-0.176;2024-01-15T01:22:08;100567.53;;;2.70
29701;BMP280;57917;51.380;-0.176;2024-01-15T01:27:55;100573.91;;;2.38
29701;BMP280;57917;51.380;-0.176;2024-01-15T01:33:42;100565.22;;;2.26
29701;BMP280;57917;51.380;-0.176;2024-01-15T01:39:29;100558.13;;;2.33
29701;BMP280;57917;51.380;-0.176;2024-01-15T01:45:16;100550.28;;;2.33
29701;BMP280;57917;51.380;-0.176;2024-01-15T01:51:04;100550.69;;;2.30
29701;BMP280;57917;51.380;-0.176;2024-01-15T01:56:54;100555.00;;;2.06
29701;BMP280;57917;51.380;-0.176;2024-01-15T02:02:42;100571.00;;;2.28
29701;BMP280;57917;51.380;-0.176;2024-01-15T02:08:30;100573.63;;;2.10
29701;BMP280;57917;51.380;-0.176;2024-01-15T02:14:18;100571.38;;;2.13
29701;BMP280;57917;51.380;-0.176;2024-01-15T02:20:06;100575.78;;;2.13
29701;BMP280;57917;51.380;-0.176;2024-01-15T02:25:56;100588.22;;;1.93
29701;BMP280;57917;51.380;-0.176;2024-01-15T02:31:44;100578.66;;;1.62
29701;BMP280;57917;51.380;-0.176;2024-01-15T02:37:31;100574.00;;;1.39
29701;BMP280;57917;51.380;-0.176;2024-01-15T02:43:19;100578.91;;;1.29
29701;BMP280;57917;51.380;-0.176;2024-01-15T02:49:09;100577.38;;;1.40
29701;BMP280;57917;51.380;-0.176;2024-01-15T02:54:56;100572.66;;;1.30
29701;BMP280;57917;51.380;-0.176;2024-01-15T03:00:46;100567.94;;;1.45
29701;BMP280;57917;51.380;-0.176;2024-01-15T03:06:33;100569.34;;;1.48
29701;BMP280;57917;51.380;-0.176;2024-01-15T03:12:21;100562.69;;;1.52
29701;BMP280;57917;51.380;-0.176;2024-01-15T03:18:08;100565.91;;;1.47
29701;BMP280;57917;51.380;-0.176;2024-01-15T03:23:59;100570.47;;;1.58
29701;BMP280;57917;51.380;-0.176;2024-01-15T03:29:46;100565.13;;;1.47
29701;BMP280;57917;51.380;-0.176;2024-01-15T03:35:33;100562.50;;;1.22
29701;BMP280;57917;51.380;-0.176;2024-01-15T03:41:21;100565.97;;;1.41
29701;BMP280;57917;51.380;-0.176;2024-01-15T03:47:08;100566.47;;;1.31
29701;BMP280;57917;51.380;-0.176;2024-01-15T03:52:55;100560.84;;;1.28
29701;BMP280;57917;51.380;-0.176;2024-01-15T03:58:44;100554.13;;;1.38
29701;BMP280;57917;51.380;-0.176;2024-01-15T04:04:31;100552.63;;;1.55
29701;BMP280;57917;51.380;-0.176;2024-01-15T04:10:18;100551.97;;;1.35
29701;BMP280;57917;51.380;-0.176;2024-01-15T04:16:08;100531.88;;;1.11
29701;BMP280;57917;51.380;-0.176;2024-01-15T04:21:55;100548.25;;;0.87
29701;BMP280;57917;51.380;-0.176;2024-01-15T04:27:42;100540.19;;;0.95
29701;BMP280;57917;51.380;-0.176;2024-01-15T04:33:34;100541.88;;;0.76
29701;BMP280;57917;51.380;-0.176;2024-01-15T04:39:27;100541.78;;;0.52
29701;BMP280;57917;51.380;-0.176;2024-01-15T04:45:14;100539.34;;;0.50
29701;BMP280;57917;51.380;-0.176;2024-01-15T04:51:05;100542.38;;;0.47
29701;BMP280;57917;51.380;-0.176;2024-01-15T04:56:56;100539.16;;;0.52
29701;BMP280;57917;51.380;-0.176;2024-01-15T05:02:44;100540.25;;;0.75
29701;BMP280;57917;51.380;-0.176;2024-01-15T05:08:34;100535.47;;;0.79
29701;BMP280;57917;51.380;-0.176;2024-01-15T05:14:23;100535.72;;;0.58
29701;BMP280;57917;51.380;-0.176;2024-01-15T05:20:11;100541.34;;;0.55
29701;BMP280;57917;51.380;-0.176;2024-01-15T05:25:58;100549.00;;;0.43
29701;BMP280;57917;51.380;-0.176;2024-01-15T05:31:45;100537.16;;;0.47
29701;BMP280;57917;51.380;-0.176;2024-01-15T05:37:33;100530.38;;;0.40
29701;BMP280;57917;51.380;-0.176;2024-01-15T05:43:20;100536.47;;;0.21
29701;BMP280;57917;51.380;-0.176;2024-01-15T05:49:11;100531.78;;;0.36
29701;BMP280;57917;51.380;-0.176;2024-01-15T05:54:58;100539.56;;;0.49
29701;BMP280;57917;51.380;-0.176;2024-01-15T06:00:46;100534.72;;;0.59
29701;BMP280;57917;51.380;-0.176;2024-01-15T06:06:34;100537.66;;;0.25
29701;BMP280;57917;51.380;-0.176;2024-01-15T06:12:22;100543.34;;;0.59
29701;BMP280;57917;51.380;-0.176;2024-01-15T06:18:10;100541.38;;;0.42
29701;BMP280;57917;51.380;-0.176;2024-01-15T06:23:57;100549.59;;;0.39
29701;BMP280;57917;51.380;-0.176;2024-01-15T06:29:45;100557.25;;;0.27
29701;BMP280;57917;51.380;-0.176;2024-01-15T06:35:37;100578.88;;;0.28
29701;BMP280;57917;51.380;-0.176;2024-01-15T06:41:26;100590.47;;;0.38
29701;BMP280;57917;51.380;-0.176;2024-01-15T06:47:13;100594.25;;;0.49
29701;BMP280;57917;51.380;-0.176;2024-01-15T06:53:01;100592.06;;;0.46
29701;BMP280;57917;51.380;-0.176;2024-01-15T06:58:48;100584.84;;;0.48
29701;BMP280;57917;51.380;-0.176;2024-01-15T07:04:35;100596.03;;;0.55
29701;BMP280;57917;51.380;-0.176;2024-01-15T07:10:26;100582.66;;;0.38
29701;BMP280;57917;51.380;-0.176;2024-01-15T07:16:13;100587.47;;;0.41
29701;BMP280;57917;51.380;-0.176;2024-01-15T07:22:11;100596.84;;;0.55
29701;BMP280;57917;51.380;-0.176;2024-01-15T07:27:58;100593.41;;;0.68
29701;BMP280;57917;51.380;-0.176;2024-01-15T07:33:45;100602.03;;;0.62
29701;BMP280;57917;51.380;-0.176;2024-01-15T07:39:33;100590.22;;;0.59
29701;BMP280;57917;51.380;-0.176;2024-01-15T07:45:21;100611.84;;;0.60
29701;BMP280;57917;51.380;-0.176;2024-01-15T07:51:08;100621.53;;;0.33
29701;BMP280;57917;51.380;-0.176;2024-01-15T07:57:01;100620.16;;;0.24
29701;BMP280;57917;51.380;-0.176;2024-01-15T08:02:53;100631.28;;;0.57
29701;BMP280;57917;51.380;-0.176;2024-01-15T08:08:41;100624.38;;;0.19
29701;BMP280;57917;51.380;-0.176;2024-01-15T08:14:29;100636.34;;;0.07
29701;BMP280;57917;51.380;-0.176;2024-01-15T08:20:15;100627.16;;;0.11
29701;BMP280;57917;51.380;-0.176;2024-01-15T08:26:03;100624.97;;;0.14
29701;BMP280;57917;51.380;-0.176;2024-01-15T08:31:50;100628.91;;;0.43
29701;BMP280;57917;51.380;-0.176;2024-01-15T08:37:39;100630.56;;;0.24
29701;BMP280;57917;51.380;-0.176;2024-01-15T08:43:26;100645.72;;;0.60
29701;BMP280;57917;51.380;-0.176;2024-01-15T08:49:14;100642.50;;;0.58
29701;BMP280;57917;51.380;-0.176;2024-01-15T08:55:01;100667.31;;;0.80
29701;BMP280;57917;51.380;-0.176;2024-01-15T09:00:48;100666.00;;;1.09
29701;BMP280;57917;51.380;-0.176;2024-01-15T09:06:35;100661.84;;;1.45
29701;BMP280;57917;51.380;-0.176;2024-01-15T09:12:22;100668.22;;;1.49
29701;BMP280;57917;51.380;-0.176;2024-01-15T09:18:09;100688.38;;;1.67
29701;BMP280;57917;51.380;-0.176;2024-01-15T09:24:00;100672.78;;;1.92
29701;BMP280;57917;51.380;-0.176;2024-01-15T09:29:47;100676.81;;;2.19
29701;BMP280;57917;51.380;-0.176;2024-01-15T09:35:44;100677.81;;;2.61
29701;BMP280;57917;51.380;-0.176;2024-01-15T09:41:35;100650.13;;;2.53
29701;BMP280;57917;51.380;-0.176;2024-01-15T09:47:23;100652.25;;;2.63
29701;BMP280;57917;51.380;-0.176;2024-01-15T09:53:11;100661.09;;;2.43
29701;BMP280;57917;51.380;-0.176;2024-01-15T09:59:01;100668.63;;;2.33
29701;BMP280;57917;51.380;-0.176;2024-01-15T10:04:51;100674.91;;;2.26
29701;BMP280;57917;51.380;-0.176;2024-01-15T10:10:41;100672.16;;;2.21
29701;BMP280;57917;51.380;-0.176;2024-01-15T10:16:31;100679.78;;;2.22
29701;BMP280;57917;51.380;-0.176;2024-01-15T10:22:22;100671.16;;;1.91
29701;BMP280;57917;51.380;-0.176;2024-01-15T10:28:10;100687.47;;;2.11
29701;BMP280;57917;51.380;-0.176;2024-01-15T10:34:10;100692.56;;;2.06
29701;BMP280;57917;51.380;-0.176;2024-01-15T10:39:58;100701.53;;;2.16
29701;BMP280;57917;51.380;-0.176;2024-01-15T10:45:50;100704.19;;;2.28
29701;BMP280;57917;51.380;-0.176;2024-01-15T10:51:38;100692.75;;;2.29
29701;BMP280;57917;51.380;-0.176;2024-01-15T10:57:26;100689.97;;;2.48
29701;BMP280;57917;51.380;-0.176;2024-01-15T11:03:14;100675.09;;;2.49
29701;BMP280;57917;51.380;-0.176;2024-01-15T11:09:03;100665.22;;;2.69
29701;BMP280;57917;51.380;-0.176;2024-01-15T11:14:50;100662.69;;;2.81
29701;BMP280;57917;51.380;-0.176;2024-01-15T11:26:59;100678.22;;;2.76
29701;BMP280;57917;51.380;-0.176;2024-01-15T11:32:47;100693.84;;;2.64
29701;BMP280;57917;51.380;-0.176;2024-01-15T11:38:38;100702.28;;;2.84
29701;BMP280;57917;51.380;-0.176;2024-01-15T11:44:27;100687.75;;;2.70
29701;BMP280;57917;51.380;-0.176;2024-01-15T11:50:17;100684.41;;;2.99
29701;BMP280;57917;51.380;-0.176;2024-01-15T11:56:17;100687.44;;;2.78
29701;BMP280;57917;51.380;-0.176;2024-01-15T12:02:16;100693.09;;;2.93
29701;BMP280;57917;51.380;-0.176;2024-01-15T12:08:04;100705.47;;;3.04
29701;BMP280;57917;51.380;-0.176;2024-01-15T12:13:57;100703.00;;;2.91
29701;BMP280;57917;51.380;-0.176;2024-01-15T12:19:46;100701.75;;;2.76
29701;BMP280;57917;51.380;-0.176;2024-01-15T12:25:37;100693.72;;;2.77
29701;BMP280;57917;51.380;-0.176;2024-01-15T12:31:30;100695.16;;;2.91
29701;BMP280;57917;51.380;-0.176;2024-01-15T12:37:40;100697.31;;;2.76
29701;BMP280;57917;51.380;-0.176;2024-01-15T12:43:31;100686.97;;;2.88
29701;BMP280;57917;51.380;-0.176;2024-01-15T12:49:18;100670.44;;;2.69
29701;BMP280;57917;51.380;-0.176;2024-01-15T12:55:07;100686.97;;;2.88
29701;BMP280;57917;51.380;-0.176;2024-01-15T13:00:56;100691.22;;;2.82
29701;BMP280;57917;51.380;-0.176;2024-01-15T13:06:47;100693.72;;;2.77
29701;BMP280;57917;51.380;-0.176;2024-01-15T13:12:35;100674.91;;;2.69
29701;BMP280;57917;51.380;-0.176;2024-01-15T13:18:30;100677.88;;;2.90
29701;BMP280;57917;51.380;-0.176;2024-01-15T13:24:19;100678.13;;;3.00
29701;BMP280;57917;51.380;-0.176;2024-01-15T13:30:06;100675.81;;;2.92
29701;BMP280;57917;51.380;-0.176;2024-01-15T13:35:55;100671.19;;;2.76
29701;BMP280;57917;51.380;-0.176;2024-01-15T13:41:43;100672.00;;;2.77
29701;BMP280;57917;51.380;-0.176;2024-01-15T13:47:31;100673.75;;;2.83
29701;BMP280;57917;51.380;-0.176;2024-01-15T13:53:18;100676.97;;;2.96
29701;BMP280;57917;51.380;-0.176;2024-01-15T13:59:05;100665.22;;;2.69
29701;BMP280;57917;51.380;-0.176;2024-01-15T14:04:53;100676.59;;;2.81
29701;BMP280;57917;51.380;-0.176;2024-01-15T14:10:41;100670.59;;;2.74
29701;BMP280;57917;51.380;-0.176;2024-01-15T14:16:28;100665.97;;;2.76
29701;BMP280;57917;51.380;-0.176;2024-01-15T14:22:21;100659.78;;;2.89
29701;BMP280;57917;51.380;-0.176;2024-01-15T14:28:08;100651.16;;;2.52
29701;BMP280;57917;51.380;-0.176;2024-01-15T14:33:55;100654.19;;;2.49
29701;BMP280;57917;51.380;-0.176;2024-01-15T14:39:43;100666.72;;;2.83
29701;BMP280;57917;51.380;-0.176;2024-01-15T14:45:30;100658.56;;;2.55
29701;BMP280;57917;51.380;-0.176;2024-01-15T14:51:20;100652.50;;;2.36
29701;BMP280;57917;51.380;-0.176;2024-01-15T14:57:07;100688.44;;;2.41
29701;BMP280;57917;51.380;-0.176;2024-01-15T15:02:57;100682.56;;;2.45
29701;BMP280;57917;51.380;-0.176;2024-01-15T15:08:45;100691.81;;;2.23
29701;BMP280;57917;51.380;-0.176;2024-01-15T15:14:34;100698.72;;;2.11
29701;BMP280;57917;51.380;-0.176;2024-01-15T15:20:39;100689.91;;;2.12
29701;BMP280;57917;51.380;-0.176;2024-01-15T15:26:26;100702.84;;;1.94
29701;BMP280;57917;51.380;-0.176;2024-01-15T15:32:15;100714.09;;;1.95
29701;BMP280;57917;51.380;-0.176;2024-01-15T15:38:02;100725.59;;;2.18
29701;BMP280;57917;51.380;-0.176;2024-01-15T15:43:49;100724.69;;;2.06
29701;BMP280;57917;51.380;-0.176;2024-01-15T15:49:36;100719.75;;;1.92
29701;BMP280;57917;51.380;-0.176;2024-01-15T15:55:23;100740.16;;;2.01
29701;BMP280;57917;51.380;-0.176;2024-01-15T16:01:10;100738.53;;;2.07
29701;BMP280;57917;51.380;-0.176;2024-01-15T16:06:58;100745.50;;;1.82
29701;BMP280;57917;51.380;-0.176;2024-01-15T16:12:45;100749.81;;;1.63
29701;BMP280;57917;51.380;-0.176;2024-01-15T16:18:32;100748.50;;;1.41
29701;BMP280;57917;51.380;-0.176;2024-01-15T16:24:39;100755.00;;;1.25
29701;BMP280;57917;51.380;-0.176;2024-01-15T16:30:38;100758.88;;;1.60
29701;BMP280;57917;51.380;-0.176;2024-01-15T16:36:33;100760.50;;;1.48
29701;BMP280;57917;51.380;-0.176;2024-01-15T16:42:27;100769.38;;;1.41
29701;BMP280;57917;51.380;-0.176;2024-01-15T16:48:18;100782.19;;;1.42
29701;BMP280;57917;51.380;-0.176;2024-01-15T16:54:05;100785.03;;;1.41
29701;BMP280;57917;51.380;-0.176;2024-01-15T16:59:52;100784.47;;;1.32
29701;BMP280;57917;51.380;-0.176;2024-01-15T17:05:39;100776.91;;;0.98
29701;BMP280;57917;51.380;-0.176;2024-01-15T17:11:26;100797.53;;;1.19
29701;BMP280;57917;51.380;-0.176;2024-01-15T17:17:14;100811.09;;;1.54
29701;BMP280;57917;51.380;-0.176;2024-01-15T17:23:03;100818.94;;;1.34
29701;BMP280;57917;51.380;-0.176;2024-01-15T17:28:53;100821.19;;;1.31
29701;BMP280;57917;51.380;-0.176;2024-01-15T17:34:41;100829.75;;;1.44
29701;BMP280;57917;51.380;-0.176;2024-01-15T17:40:33;100819.59;;;1.23
29701;BMP280;57917;51.380;-0.176;2024-01-15T17:46:28;100828.81;;;1.26
29701;BMP280;57917;51.380;-0.176;2024-01-15T17:52:19;100840.25;;;1.31
29701;BMP280;57917;51.380;-0.176;2024-01-15T17:58:14;100850.09;;;1.10
29701;BMP280;57917;51.380;-0.176;2024-01-15T18:04:06;100858.88;;;0.63
29701;BMP280;57917;51.380;-0.176;2024-01-15T18:09:53;100862.66;;;0.41
29701;BMP280;57917;51.380;-0.176;2024-01-15T18:15:40;100875.94;;;0.72
29701;BMP280;57917;51.380;-0.176;2024-01-15T18:21:32;100878.94;;;0.75
29701;BMP280;57917;51.380;-0.176;2024-01-15T18:27:23;100890.97;;;0.70
29701;BMP280;57917;51.380;-0.176;2024-01-15T18:33:13;100926.88;;;0.88
29701;BMP280;57917;51.380;-0.176;2024-01-15T18:39:10;100899.47;;;0.38
29701;BMP280;57917;51.380;-0.176;2024-01-15T18:44:59;100886.78;;;0.09
29701;BMP280;57917;51.380;-0.176;2024-01-15T18:50:46;100897.50;;;0.27
29701;BMP280;57917;51.380;-0.176;2024-01-15T18:56:40;100888.56;;;0.02
29701;BMP280;57917;51.380;-0.176;2024-01-15T19:02:37;100887.28;;;0.32
29701;BMP280;57917;51.380;-0.176;2024-01-15T19:08:27;100885.25;;;0.34
29701;BMP280;57917;51.380;-0.176;2024-01-15T19:14:17;100879.06;;;0.28
29701;BMP280;57917;51.380;-0.176;2024-01-15T19:20:10;100897.22;;;0.15
29701;BMP280;57917;51.380;-0.176;2024-01-15T19:26:03;100900.50;;;0.30
29701;BMP280;57917;51.380;-0.176;2024-01-15T19:31:55;100896.38;;;0.02
29701;BMP280;57917;51.380;-0.176;2024-01-15T19:37:45;100902.44;;;0.15
29701;BMP280;57917;51.380;-0.176;2024-01-15T19:43:35;100891.47;;;-0.15
29701;BMP280;57917;51.380;-0.176;2024-01-15T19:49:22;100917.47;;;-0.21
29701;BMP280;57917;51.380;-0.176;2024-01-15T19:55:13;100912.88;;;-0.47
29701;BMP280;57917;51.380;-0.176;2024-01-15T20:01:00;100926.50;;;-0.45
29701;BMP280;57917;51.380;-0.176;2024-01-15T20:06:48;100927.16;;;-0.09
29701;BMP280;57917;51.380;-0.176;2024-01-15T20:12:35;100912.28;;;-0.21
29701;BMP280;57917;51.380;-0.176;2024-01-15T20:18:22;100928.72;;;-0.42
29701;BMP280;57917;51.380;-0.176;2024-01-15T20:24:09;100931.88;;;-0.19
29701;BMP280;57917;51.380;-0.176;2024-01-15T20:29:58;100944.28;;;-0.21
29701;BMP280;57917;51.380;-0.176;2024-01-15T20:35:47;100895.84;;;-0.49
29701;BMP280;57917;51.380;-0.176;2024-01-15T20:41:34;100914.41;;;-0.31
29701;BMP280;57917;51.380;-0.176;2024-01-15T20:47:22;100923.28;;;-0.47
29701;BMP280;57917;51.380;-0.176;2024-01-15T20:53:09;100901.66;;;-0.47
29701;BMP280;57917;51.380;-0.176;2024-01-15T20:58:58;100902.94;;;-0.37
29701;BMP280;57917;51.380;-0.176;2024-01-15T21:04:50;100878.84;;;-0.52
29701;BMP280;57917;51.380;-0.176;2024-01-15T21:10:38;100892.25;;;-0.76
29701;BMP280;57917;51.380;-0.176;2024-01-15T21:16:24;100888.53;;;-0.67
29701;BMP280;57917;51.380;-0.176;2024-01-15T21:22:12;100902.19;;;-0.58
29701;BMP280;57917;51.380;-0.176;2024-01-15T21:28:04;100911.50;;;-0.70
29701;BMP280;57917;51.380;-0.176;2024-01-15T21:33:51;100922.81;;;-0.57
29701;BMP280;57917;51.380;-0.176;2024-01-15T21:39:52;100921.19;;;-0.58
29701;BMP280;57917;51.380;-0.176;2024-01-15T21:45:40;100920.25;;;-0.78
29701;BMP280;57917;51.380;-0.176;2024-01-15T21:51:33;100916.06;;;-1.00
29701;BMP280;57917;51.380;-0.176;2024-01-15T21:57:24;100918.38;;;-0.63
29701;BMP280;57917;51.380;-0.176;2024-01-15T22:03:12;100924.84;;;-0.52
29701;BMP280;57917;51.380;-0.176;2024-01-15T22:09:35;100919.63;;;-0.80
29701;BMP280;57917;51.380;-0.176;2024-01-15T22:15:28;100921.13;;;-1.13
29701;BMP280;57917;51.380;-0.176;2024-01-15T22:21:51;100932.63;;;-1.22
29701;BMP280;57917;51.380;-0.176;2024-01-15T22:28:37;100940.13;;;-1.13
29701;BMP280;57917;51.380;-0.176;2024-01-15T22:34:42;100925.44;;;-1.20
29701;BMP280;57917;51.380;-0.176;2024-01-15T22:40:44;100932.56;;;-0.87
29701;BMP280;57917;51.380;-0.176;2024-01-15T22:46:42;100933.72;;;-1.10
29701;BMP280;57917;51.380;-0.176;2024-01-15T22:52:29;100926.47;;;-0.72
29701;BMP280;57917;51.380;-0.176;2024-01-15T22:58:16;100930.59;;;-1.06
29701;BMP280;57917;51.380;-0.176;2024-01-15T23:04:11;100932.69;;;-1.16
29701;BMP280;57917;51.380;-0.176;2024-01-15T23:10:01;100943.97;;;-1.09
29701;BMP280;57917;51.380;-0.176;2024-01-15T23:37:04;100943.22;;;-1.38
29701;BMP280;57917;51.380;-0.176;2024-01-15T23:42:51;100939.06;;;-0.97
29701;BMP280;57917;51.380;-0.176;2024-01-15T23:48:38;100929.75;;;-0.85
29701;BMP280;57917;51.380;-0.176;2024-01-15T23:54:26;100935.22;;;-1.22
